createdAt,value
2022-08-24T00:00:00.080Z,99169.42
2022-08-24T00:00:35.374Z,99165.42
2022-08-24T00:01:13.579Z,99167.73
2022-08-24T00:01:47.021Z,99167.83
2022-08-24T00:02:20.419Z,99171.09
2022-08-24T00:02:54.041Z,99166.49
2022-08-24T00:03:31.761Z,99167.30
2022-08-24T00:04:08.071Z,99168.25
2022-08-24T00:04:41.481Z,99169.64
2022-08-24T00:05:15.210Z,99167.92
2022-08-24T00:05:48.733Z,99166.48
2022-08-24T00:06:23.659Z,99167.23
2022-08-24T00:06:57.526Z,99171.13
2022-08-24T00:07:31.928Z,99169.41
2022-08-24T00:08:05.325Z,99168.55
2022-08-24T00:08:39.991Z,99167.95
2022-08-24T00:09:13.355Z,99165.77
2022-08-24T00:09:49.568Z,99167.21
2022-08-24T00:10:25.512Z,99165.64
2022-08-24T00:11:00.070Z,99163.56
2022-08-24T00:11:33.144Z,99167.35
2022-08-24T00:12:06.520Z,99163.55
2022-08-24T00:12:41.227Z,99164.23
2022-08-24T00:13:15.173Z,99164.86
2022-08-24T00:13:48.743Z,99164.27
2022-08-24T00:14:22.034Z,99165.83
2022-08-24T00:14:56.597Z,99168.39
2022-08-24T00:15:29.769Z,99166.39
2022-08-24T00:16:03.418Z,99166.05
2022-08-24T00:16:36.915Z,99165.40
2022-08-24T00:17:10.310Z,99162.94
2022-08-24T00:17:43.488Z,99165.06
2022-08-24T00:18:16.992Z,99166.71
2022-08-24T00:18:50.129Z,99167.13
2022-08-24T00:19:23.983Z,99168.83
2022-08-24T00:19:57.348Z,99167.48
2022-08-24T00:20:30.957Z,99169.42
2022-08-24T00:21:05.961Z,99168.41
2022-08-24T00:21:39.259Z,99168.35
2022-08-24T00:22:13.604Z,99169.84
2022-08-24T00:22:46.810Z,99168.23
2022-08-24T00:23:20.535Z,99168.95
2022-08-24T00:23:54.738Z,99166.81
2022-08-24T00:24:28.529Z,99167.66
2022-08-24T00:25:02.247Z,99167.48
2022-08-24T00:25:35.782Z,99167.70
2022-08-24T00:26:10.663Z,99169.07
2022-08-24T00:26:46.191Z,99170.34
2022-08-24T00:27:19.230Z,99171.24
2022-08-24T00:27:53.395Z,99172.79
2022-08-24T00:28:26.641Z,99171.13
2022-08-24T00:29:03.095Z,99169.09
2022-08-24T00:29:39.695Z,99172.01
2022-08-24T00:30:17.140Z,99169.95
2022-08-24T00:30:50.683Z,99177.23
2022-08-24T00:31:23.906Z,99175.09
2022-08-24T00:31:57.189Z,99171.52
2022-08-24T00:32:30.439Z,99176.45
2022-08-24T00:33:04.142Z,99174.31
2022-08-24T00:33:37.270Z,99173.03
2022-08-24T00:34:10.747Z,99173.27
2022-08-24T00:34:45.899Z,99174.55
2022-08-24T00:35:32.331Z,99174.23
2022-08-24T00:36:05.923Z,99171.02
2022-08-24T00:36:39.288Z,99169.89
2022-08-24T00:37:12.923Z,99171.66
2022-08-24T00:37:48.088Z,99170.21
2022-08-24T00:38:21.381Z,99171.92
2022-08-24T00:38:54.661Z,99168.52
2022-08-24T00:39:27.837Z,99171.50
2022-08-24T00:40:01.149Z,99168.81
2022-08-24T00:40:37.809Z,99170.13
2022-08-24T00:41:10.857Z,99172.63
2022-08-24T00:41:47.652Z,99171.54
2022-08-24T00:42:20.760Z,99173.09
2022-08-24T00:42:55.743Z,99173.52
2022-08-24T00:43:29.377Z,99170.26
2022-08-24T00:44:05.369Z,99173.19
2022-08-24T00:44:38.580Z,99175.09
2022-08-24T00:45:14.997Z,99170.44
2022-08-24T00:46:19.038Z,99170.07
2022-08-24T00:46:58.409Z,99172.83
2022-08-24T00:47:39.203Z,99174.89
2022-08-24T00:48:18.119Z,99171.79
2022-08-24T00:48:58.559Z,99174.08
2022-08-24T00:49:44.717Z,99171.35
2022-08-24T00:50:33.781Z,99171.24
2022-08-24T00:51:26.278Z,99169.96
2022-08-24T00:52:05.081Z,99170.38
2022-08-24T00:52:47.554Z,99172.50
2022-08-24T00:53:27.283Z,99173.66
2022-08-24T00:54:08.560Z,99173.44
2022-08-24T00:54:48.950Z,99171.35
2022-08-24T00:55:27.864Z,99172.36
2022-08-24T00:56:12.265Z,99169.64
2022-08-24T00:56:57.127Z,99172.16
2022-08-24T00:57:36.528Z,99171.60
2022-08-24T00:58:25.644Z,99172.42
2022-08-24T00:59:05.388Z,99171.13
2022-08-24T00:59:45.468Z,99174.44
2022-08-24T01:00:23.392Z,99175.51
2022-08-24T01:01:00.494Z,99175.23
2022-08-24T01:01:36.305Z,99172.82
2022-08-24T01:02:15.829Z,99175.27
2022-08-24T01:02:53.592Z,99177.10
2022-08-24T01:03:28.361Z,99171.17
2022-08-24T01:04:02.624Z,99175.11
2022-08-24T01:04:42.537Z,99174.92
2022-08-24T01:05:18.190Z,99179.94
2022-08-24T01:05:51.473Z,99179.77
2022-08-24T01:06:25.037Z,99181.89
2022-08-24T01:06:58.654Z,99181.91
2022-08-24T01:07:33.839Z,99182.81
2022-08-24T01:08:10.058Z,99180.58
2022-08-24T01:08:44.738Z,99176.67
2022-08-24T01:09:17.819Z,99177.41
2022-08-24T01:09:54.712Z,99175.92
2022-08-24T01:10:31.416Z,99178.11
2022-08-24T01:11:13.886Z,99180.08
2022-08-24T01:11:47.703Z,99175.28
2022-08-24T01:12:22.607Z,99176.23
2022-08-24T01:13:01.383Z,99173.30
2022-08-24T01:13:35.634Z,99174.61
2022-08-24T01:14:09.371Z,99175.77
2022-08-24T01:14:43.750Z,99175.51
2022-08-24T01:15:20.623Z,99173.32
2022-08-24T01:15:58.406Z,99177.70
2022-08-24T01:16:50.327Z,99174.02
2022-08-24T01:17:43.056Z,99176.25
2022-08-24T01:18:38.980Z,99176.74
2022-08-24T01:19:37.183Z,99175.23
2022-08-24T01:20:12.251Z,99174.80
2022-08-24T01:20:49.797Z,99173.67
2022-08-24T01:21:38.492Z,99171.81
2022-08-24T01:22:49.304Z,99172.55
2022-08-24T01:23:40.440Z,99173.10
2022-08-24T01:24:14.412Z,99173.30
2022-08-24T01:24:47.904Z,99174.00
2022-08-24T01:25:23.805Z,99176.28
2022-08-24T01:25:57.239Z,99177.40
2022-08-24T01:26:50.999Z,99177.78
2022-08-24T01:27:24.907Z,99180.34
2022-08-24T01:28:07.107Z,99179.95
2022-08-24T01:28:42.738Z,99184.69
2022-08-24T01:29:28.838Z,99179.55
2022-08-24T01:30:09.160Z,99183.54
2022-08-24T01:30:45.661Z,99181.30
2022-08-24T01:31:22.483Z,99183.46
2022-08-24T01:31:56.648Z,99183.77
2022-08-24T01:32:30.271Z,99184.73
2022-08-24T01:33:07.021Z,99181.89
2022-08-24T01:33:40.466Z,99185.46
2022-08-24T01:34:13.595Z,99185.63
2022-08-24T01:34:46.826Z,99183.40
2022-08-24T01:35:20.057Z,99182.61
2022-08-24T01:36:03.935Z,99181.91
2022-08-24T01:36:46.425Z,99182.62
2022-08-24T01:37:19.574Z,99182.77
2022-08-24T01:37:56.147Z,99181.17
2022-08-24T01:38:29.348Z,99181.65
2022-08-24T01:39:10.669Z,99182.25
2022-08-24T01:39:46.810Z,99177.95
2022-08-24T01:40:20.927Z,99178.84
2022-08-24T01:41:00.191Z,99178.20
2022-08-24T01:41:33.358Z,99181.23
2022-08-24T01:42:07.586Z,99181.72
2022-08-24T01:42:40.930Z,99181.03
2022-08-24T01:43:15.368Z,99182.04
2022-08-24T01:43:48.437Z,99180.39
2022-08-24T01:44:23.135Z,99181.68
2022-08-24T01:44:56.412Z,99178.75
2022-08-24T01:45:29.866Z,99181.16
2022-08-24T01:46:03.264Z,99181.45
2022-08-24T01:46:36.711Z,99178.96
2022-08-24T01:47:12.837Z,99179.31
2022-08-24T01:47:46.385Z,99181.00
2022-08-24T01:48:20.176Z,99177.98
2022-08-24T01:48:58.383Z,99176.27
2022-08-24T01:49:34.579Z,99176.56
2022-08-24T01:50:08.494Z,99175.77
2022-08-24T01:50:41.699Z,99175.46
2022-08-24T01:51:15.073Z,99173.02
2022-08-24T01:51:48.383Z,99175.54
2022-08-24T01:52:24.781Z,99172.46
2022-08-24T01:53:14.473Z,99172.95
2022-08-24T01:53:47.913Z,99168.80
2022-08-24T01:54:21.280Z,99171.45
2022-08-24T01:54:54.975Z,99169.98
2022-08-24T01:55:28.895Z,99170.13
2022-08-24T01:56:02.193Z,99170.65
2022-08-24T01:56:36.864Z,99170.50
2022-08-24T01:57:16.318Z,99167.90
2022-08-24T01:57:50.560Z,99171.86
2022-08-24T01:58:24.900Z,99171.45
2022-08-24T01:58:58.833Z,99169.96
2022-08-24T01:59:32.350Z,99171.73
2022-08-24T02:00:10.516Z,99169.02
2022-08-24T02:00:45.068Z,99175.09
2022-08-24T02:01:19.443Z,99174.23
2022-08-24T02:02:01.897Z,99171.89
2022-08-24T02:02:35.388Z,99172.82
2022-08-24T02:03:08.779Z,99172.89
2022-08-24T02:03:42.037Z,99170.39
2022-08-24T02:04:18.836Z,99172.10
2022-08-24T02:04:52.266Z,99171.70
2022-08-24T02:05:26.154Z,99168.67
2022-08-24T02:05:59.816Z,99168.23
2022-08-24T02:06:33.611Z,99171.58
2022-08-24T02:07:10.443Z,99169.58
2022-08-24T02:07:44.455Z,99170.21
2022-08-24T02:08:18.121Z,99170.60
2022-08-24T02:08:51.259Z,99170.27
2022-08-24T02:09:24.765Z,99171.61
2022-08-24T02:10:07.197Z,99171.08
2022-08-24T02:10:40.810Z,99169.59
2022-08-24T02:11:22.443Z,99166.57
2022-08-24T02:11:55.730Z,99169.37
2022-08-24T02:12:28.800Z,99168.78
2022-08-24T02:13:04.126Z,99168.32
2022-08-24T02:13:39.809Z,99168.71
2022-08-24T02:14:14.610Z,99169.19
2022-08-24T02:14:48.007Z,99170.05
2022-08-24T02:15:21.172Z,99167.98
2022-08-24T02:15:54.366Z,99169.05
2022-08-24T02:16:27.910Z,99168.30
2022-08-24T02:17:01.418Z,99170.93
2022-08-24T02:17:35.915Z,99169.54
2022-08-24T02:18:15.220Z,99168.89
2022-08-24T02:18:49.297Z,99167.94
2022-08-24T02:19:22.559Z,99165.73
2022-08-24T02:19:55.713Z,99166.27
2022-08-24T02:20:29.647Z,99167.45
2022-08-24T02:21:03.077Z,99169.70
2022-08-24T02:21:36.484Z,99170.02
2022-08-24T02:22:10.012Z,99168.37
2022-08-24T02:22:43.065Z,99169.67
2022-08-24T02:23:16.533Z,99168.09
2022-08-24T02:23:49.899Z,99171.23
2022-08-24T02:24:23.801Z,99174.38
2022-08-24T02:24:57.894Z,99173.73
2022-08-24T02:25:31.276Z,99173.27
2022-08-24T02:26:06.746Z,99176.31
2022-08-24T02:26:40.963Z,99178.58
2022-08-24T02:27:16.729Z,99178.98
2022-08-24T02:27:50.377Z,99180.70
2022-08-24T02:28:23.617Z,99181.80
2022-08-24T02:28:56.840Z,99181.64
2022-08-24T02:29:32.429Z,99179.41
2022-08-24T02:30:06.747Z,99180.33
2022-08-24T02:30:40.518Z,99182.02
2022-08-24T02:31:14.945Z,99181.19
2022-08-24T02:31:48.259Z,99178.42
2022-08-24T02:32:21.670Z,99177.84
2022-08-24T02:32:54.683Z,99178.38
2022-08-24T02:33:28.145Z,99174.70
2022-08-24T02:34:01.436Z,99179.41
2022-08-24T02:34:34.963Z,99175.55
2022-08-24T02:35:09.106Z,99176.14
2022-08-24T02:35:42.620Z,99175.98
2022-08-24T02:36:25.978Z,99175.02
2022-08-24T02:37:00.288Z,99170.80
2022-08-24T02:37:33.427Z,99170.15
2022-08-24T02:38:10.402Z,99173.56
2022-08-24T02:38:43.824Z,99170.79
2022-08-24T02:39:16.959Z,99172.11
2022-08-24T02:39:50.061Z,99167.30
2022-08-24T02:40:24.695Z,99169.82
2022-08-24T02:40:58.312Z,99169.55
2022-08-24T02:41:31.521Z,99170.02
2022-08-24T02:42:05.317Z,99167.46
2022-08-24T02:42:38.923Z,99171.94
2022-08-24T02:43:11.994Z,99174.54
2022-08-24T02:43:45.457Z,99172.74
2022-08-24T02:44:19.295Z,99174.18
2022-08-24T02:44:52.866Z,99174.18
2022-08-24T02:45:27.633Z,99176.48
2022-08-24T02:46:00.892Z,99173.91
2022-08-24T02:46:34.402Z,99177.05
2022-08-24T02:47:07.736Z,99177.10
2022-08-24T02:47:40.895Z,99173.85
2022-08-24T02:48:14.370Z,99180.35
2022-08-24T02:48:47.691Z,99180.84
2022-08-24T02:49:41.178Z,99183.45
2022-08-24T02:50:16.201Z,99182.67
2022-08-24T02:50:52.666Z,99180.74
2022-08-24T02:51:29.671Z,99182.48
2022-08-24T02:52:03.527Z,99182.81
2022-08-24T02:52:39.758Z,99182.12
2022-08-24T02:53:15.161Z,99182.17
2022-08-24T02:53:48.758Z,99185.23
2022-08-24T02:54:22.107Z,99183.41
2022-08-24T02:54:55.323Z,99185.29
2022-08-24T02:55:28.504Z,99186.95
2022-08-24T02:56:01.605Z,99185.89
2022-08-24T02:56:35.947Z,99188.79
2022-08-24T02:57:09.132Z,99187.81
2022-08-24T02:57:42.522Z,99191.02
2022-08-24T02:58:17.764Z,99189.30
2022-08-24T02:58:53.190Z,99186.80
2022-08-24T02:59:27.797Z,99190.33
2022-08-24T03:00:01.345Z,99189.20
2022-08-24T03:00:36.736Z,99185.74
2022-08-24T03:01:17.492Z,99186.28
2022-08-24T03:01:51.673Z,99186.66
2022-08-24T03:02:25.062Z,99186.60
2022-08-24T03:02:59.126Z,99188.41
2022-08-24T03:03:33.263Z,99189.27
2022-08-24T03:04:06.493Z,99185.64
2022-08-24T03:04:39.628Z,99188.84
2022-08-24T03:05:12.888Z,99188.27
2022-08-24T03:05:46.207Z,99193.36
2022-08-24T03:06:20.398Z,99186.20
2022-08-24T03:06:53.631Z,99189.11
2022-08-24T03:07:27.092Z,99191.67
2022-08-24T03:08:00.651Z,99193.80
2022-08-24T03:08:35.690Z,99191.18
2022-08-24T03:09:09.180Z,99190.14
2022-08-24T03:09:42.254Z,99196.59
2022-08-24T03:10:16.208Z,99191.25
2022-08-24T03:10:49.988Z,99192.56
2022-08-24T03:11:27.400Z,99194.17
2022-08-24T03:12:01.587Z,99194.70
2022-08-24T03:12:35.038Z,99196.84
2022-08-24T03:13:08.260Z,99196.84
2022-08-24T03:13:41.823Z,99201.39
2022-08-24T03:14:15.040Z,99203.08
2022-08-24T03:14:48.259Z,99202.92
2022-08-24T03:15:22.806Z,99202.96
2022-08-24T03:15:56.011Z,99207.48
2022-08-24T03:16:29.792Z,99201.44
2022-08-24T03:17:03.211Z,99206.55
2022-08-24T03:17:37.276Z,99207.85
2022-08-24T03:18:13.734Z,99209.76
2022-08-24T03:18:48.322Z,99210.74
2022-08-24T03:19:22.609Z,99210.56
2022-08-24T03:19:55.754Z,99213.92
2022-08-24T03:20:29.012Z,99211.04
2022-08-24T03:21:03.618Z,99215.27
2022-08-24T03:21:37.130Z,99212.54
2022-08-24T03:22:10.276Z,99215.12
2022-08-24T03:22:43.521Z,99212.94
2022-08-24T03:23:16.799Z,99212.23
2022-08-24T03:23:49.959Z,99215.02
2022-08-24T03:24:23.608Z,99213.05
2022-08-24T03:24:56.930Z,99211.88
2022-08-24T03:25:30.225Z,99209.74
2022-08-24T03:26:03.768Z,99209.09
2022-08-24T03:26:37.085Z,99210.54
2022-08-24T03:27:10.227Z,99211.23
2022-08-24T03:27:43.715Z,99210.20
2022-08-24T03:28:17.220Z,99212.54
2022-08-24T03:28:52.027Z,99212.38
2022-08-24T03:29:25.142Z,99210.95
2022-08-24T03:29:58.290Z,99214.47
2022-08-24T03:30:31.576Z,99215.10
2022-08-24T03:31:05.692Z,99215.27
2022-08-24T03:31:39.407Z,99218.34
2022-08-24T03:32:12.726Z,99220.16
2022-08-24T03:32:46.472Z,99226.15
2022-08-24T03:33:20.302Z,99223.64
2022-08-24T03:33:53.465Z,99227.60
2022-08-24T03:34:26.696Z,99225.51
2022-08-24T03:34:59.936Z,99226.90
2022-08-24T03:35:34.161Z,99227.85
2022-08-24T03:36:11.256Z,99225.14
2022-08-24T03:36:46.950Z,99225.58
2022-08-24T03:37:20.945Z,99227.23
2022-08-24T03:37:55.060Z,99223.33
2022-08-24T03:38:28.599Z,99218.64
2022-08-24T03:39:01.715Z,99222.86
2022-08-24T03:39:35.143Z,99221.73
2022-08-24T03:40:22.550Z,99222.98
2022-08-24T03:40:57.810Z,99221.55
2022-08-24T03:41:31.141Z,99219.67
2022-08-24T03:42:08.757Z,99218.08
2022-08-24T03:42:42.107Z,99218.77
2022-08-24T03:43:35.112Z,99216.27
2022-08-24T03:44:08.301Z,99215.03
2022-08-24T03:44:41.823Z,99214.23
2022-08-24T03:45:14.941Z,99210.70
2022-08-24T03:45:48.324Z,99212.46
2022-08-24T03:46:27.542Z,99211.02
2022-08-24T03:47:00.758Z,99212.77
2022-08-24T03:47:33.777Z,99211.92
2022-08-24T03:48:08.479Z,99209.15
2022-08-24T03:48:42.663Z,99209.10
2022-08-24T03:49:15.793Z,99210.48
2022-08-24T03:49:49.581Z,99213.09
2022-08-24T03:50:24.009Z,99212.88
2022-08-24T03:50:57.511Z,99208.85
2022-08-24T03:51:30.967Z,99210.67
2022-08-24T03:52:05.972Z,99214.92
2022-08-24T03:52:39.501Z,99216.33
2022-08-24T03:53:12.731Z,99217.34
2022-08-24T03:53:45.940Z,99218.35
2022-08-24T03:54:20.086Z,99216.96
2022-08-24T03:54:53.737Z,99218.67
2022-08-24T03:55:26.936Z,99215.54
2022-08-24T03:56:00.362Z,99216.01
2022-08-24T03:56:41.934Z,99212.74
2022-08-24T03:57:15.614Z,99210.51
2022-08-24T03:57:50.000Z,99208.95
2022-08-24T03:58:23.140Z,99206.98
2022-08-24T03:58:57.566Z,99203.52
2022-08-24T03:59:31.899Z,99198.39
2022-08-24T04:00:08.048Z,99199.52
2022-08-24T04:00:43.119Z,99197.80
2022-08-24T04:01:17.941Z,99193.21
2022-08-24T04:01:51.700Z,99191.98
2022-08-24T04:02:25.430Z,99191.03
2022-08-24T04:02:59.866Z,99189.77
2022-08-24T04:03:40.815Z,99188.44
2022-08-24T04:04:13.996Z,99191.73
2022-08-24T04:04:47.140Z,99192.79
2022-08-24T04:05:20.203Z,99191.30
2022-08-24T04:05:53.262Z,99189.75
2022-08-24T04:06:28.282Z,99194.92
2022-08-24T04:07:01.410Z,99196.84
2022-08-24T04:07:34.690Z,99200.95
2022-08-24T04:08:08.568Z,99204.01
2022-08-24T04:08:42.956Z,99206.46
2022-08-24T04:09:17.078Z,99207.80
2022-08-24T04:09:50.286Z,99209.23
2022-08-24T04:10:23.437Z,99209.41
2022-08-24T04:10:56.672Z,99210.61
2022-08-24T04:11:30.301Z,99210.81
2022-08-24T04:12:03.984Z,99210.73
2022-08-24T04:12:37.057Z,99210.57
2022-08-24T04:13:10.181Z,99214.25
2022-08-24T04:13:43.820Z,99208.10
2022-08-24T04:14:26.521Z,99211.04
2022-08-24T04:15:00.885Z,99213.29
2022-08-24T04:15:40.577Z,99209.23
2022-08-24T04:16:17.278Z,99210.95
2022-08-24T04:16:53.457Z,99212.63
2022-08-24T04:17:31.143Z,99211.45
2022-08-24T04:18:04.408Z,99212.86
2022-08-24T04:18:37.857Z,99213.22
2022-08-24T04:19:11.830Z,99211.66
2022-08-24T04:19:58.031Z,99211.30
2022-08-24T04:20:31.615Z,99211.69
2022-08-24T04:21:05.216Z,99218.30
2022-08-24T04:21:38.389Z,99219.95
2022-08-24T04:22:11.571Z,99219.39
2022-08-24T04:22:44.693Z,99224.09
2022-08-24T04:23:19.304Z,99227.08
2022-08-24T04:23:53.203Z,99229.73
2022-08-24T04:24:27.495Z,99231.34
2022-08-24T04:25:00.996Z,99231.91
2022-08-24T04:25:48.570Z,99235.23
2022-08-24T04:26:34.758Z,99238.00
2022-08-24T04:27:17.612Z,99236.78
2022-08-24T04:27:51.057Z,99234.97
2022-08-24T04:28:24.275Z,99233.91
2022-08-24T04:28:58.978Z,99232.11
2022-08-24T04:29:32.322Z,99232.19
2022-08-24T04:30:06.848Z,99233.06
2022-08-24T04:30:45.416Z,99235.81
2022-08-24T04:31:19.379Z,99235.02
2022-08-24T04:31:52.758Z,99234.50
2022-08-24T04:32:26.436Z,99233.48
2022-08-24T04:32:59.812Z,99238.91
2022-08-24T04:33:33.563Z,99240.20
2022-08-24T04:34:08.186Z,99243.58
2022-08-24T04:34:42.968Z,99245.84
2022-08-24T04:35:16.440Z,99245.36
2022-08-24T04:35:50.566Z,99243.45
2022-08-24T04:36:24.236Z,99242.55
2022-08-24T04:36:57.360Z,99244.01
2022-08-24T04:37:30.508Z,99242.20
2022-08-24T04:38:04.213Z,99246.55
2022-08-24T04:38:38.362Z,99244.01
2022-08-24T04:39:12.660Z,99249.77
2022-08-24T04:39:45.952Z,99250.61
2022-08-24T04:40:19.566Z,99252.73
2022-08-24T04:40:54.142Z,99251.76
2022-08-24T04:41:31.263Z,99254.23
2022-08-24T04:42:06.449Z,99255.67
2022-08-24T04:42:40.147Z,99253.07
2022-08-24T04:43:19.477Z,99251.64
2022-08-24T04:43:53.429Z,99252.25
2022-08-24T04:44:30.321Z,99249.52
2022-08-24T04:45:05.310Z,99247.35
2022-08-24T04:45:40.617Z,99248.55
2022-08-24T04:46:17.122Z,99247.32
2022-08-24T04:46:50.394Z,99248.52
2022-08-24T04:47:24.612Z,99248.81
2022-08-24T04:47:57.847Z,99250.95
2022-08-24T04:48:31.558Z,99251.19
2022-08-24T04:49:04.678Z,99249.86
2022-08-24T04:49:39.360Z,99251.58
2022-08-24T04:50:13.101Z,99252.02
2022-08-24T04:50:47.349Z,99255.16
2022-08-24T04:51:21.655Z,99252.77
2022-08-24T04:51:54.901Z,99252.73
2022-08-24T04:52:29.392Z,99251.14
2022-08-24T04:53:04.613Z,99256.59
2022-08-24T04:53:38.917Z,99253.77
2022-08-24T04:54:12.272Z,99251.49
2022-08-24T04:54:45.632Z,99251.61
2022-08-24T04:55:19.260Z,99252.04
2022-08-24T04:55:52.513Z,99248.20
2022-08-24T04:56:25.938Z,99248.87
2022-08-24T04:56:59.130Z,99248.55
2022-08-24T04:57:34.323Z,99248.02
2022-08-24T04:58:07.701Z,99248.66
2022-08-24T04:58:41.968Z,99246.70
2022-08-24T04:59:15.296Z,99248.16
2022-08-24T04:59:48.738Z,99245.70
2022-08-24T05:00:22.052Z,99249.65
2022-08-24T05:00:55.264Z,99246.77
2022-08-24T05:01:30.797Z,99250.99
2022-08-24T05:02:04.202Z,99251.45
2022-08-24T05:02:44.732Z,99250.05
2022-08-24T05:03:19.321Z,99249.06
2022-08-24T05:03:55.401Z,99251.58
2022-08-24T05:04:28.729Z,99252.70
2022-08-24T05:05:04.633Z,99249.23
2022-08-24T05:05:46.013Z,99248.17
2022-08-24T05:06:22.625Z,99245.51
2022-08-24T05:06:55.799Z,99245.88
2022-08-24T05:07:30.301Z,99248.92
2022-08-24T05:08:03.606Z,99246.15
2022-08-24T05:08:38.259Z,99248.13
2022-08-24T05:09:11.611Z,99248.10
2022-08-24T05:09:45.773Z,99250.23
2022-08-24T05:10:19.353Z,99248.25
2022-08-24T05:10:52.517Z,99251.95
2022-08-24T05:11:27.050Z,99252.55
2022-08-24T05:12:00.342Z,99250.52
2022-08-24T05:12:33.711Z,99251.59
2022-08-24T05:13:07.749Z,99251.98
2022-08-24T05:13:41.819Z,99251.87
2022-08-24T05:14:14.939Z,99251.61
2022-08-24T05:14:48.321Z,99253.12
2022-08-24T05:15:21.606Z,99254.04
2022-08-24T05:15:55.026Z,99254.91
2022-08-24T05:16:28.349Z,99254.33
2022-08-24T05:17:04.833Z,99251.69
2022-08-24T05:17:49.927Z,99258.17
2022-08-24T05:18:24.731Z,99255.66
2022-08-24T05:18:58.598Z,99256.59
2022-08-24T05:19:31.921Z,99257.98
2022-08-24T05:20:06.387Z,99259.90
2022-08-24T05:20:45.648Z,99263.45
2022-08-24T05:21:22.003Z,99263.05
2022-08-24T05:21:55.485Z,99265.20
2022-08-24T05:22:28.741Z,99262.09
2022-08-24T05:23:04.490Z,99263.14
2022-08-24T05:23:39.352Z,99263.49
2022-08-24T05:24:16.806Z,99262.02
2022-08-24T05:24:50.456Z,99267.30
2022-08-24T05:25:23.747Z,99266.25
2022-08-24T05:26:16.781Z,99263.43
2022-08-24T05:26:51.685Z,99266.11
2022-08-24T05:27:26.288Z,99263.28
2022-08-24T05:28:00.966Z,99262.60
2022-08-24T05:28:35.792Z,99259.88
2022-08-24T05:29:08.997Z,99259.66
2022-08-24T05:29:42.068Z,99258.34
2022-08-24T05:30:15.623Z,99260.05
2022-08-24T05:30:51.122Z,99257.45
2022-08-24T05:31:28.051Z,99256.27
2022-08-24T05:32:02.340Z,99259.27
2022-08-24T05:32:38.705Z,99263.02
2022-08-24T05:33:11.898Z,99261.64
2022-08-24T05:33:45.878Z,99260.68
2022-08-24T05:34:19.775Z,99262.19
2022-08-24T05:34:53.072Z,99262.61
2022-08-24T05:35:26.670Z,99261.71
2022-08-24T05:36:00.114Z,99261.79
2022-08-24T05:36:38.713Z,99259.06
2022-08-24T05:37:12.309Z,99258.97
2022-08-24T05:37:45.818Z,99258.86
2022-08-24T05:38:19.709Z,99261.34
2022-08-24T05:38:55.821Z,99261.68
2022-08-24T05:39:31.282Z,99260.44
2022-08-24T05:40:07.289Z,99258.15
2022-08-24T05:40:41.607Z,99259.88
2022-08-24T05:41:16.532Z,99264.14
2022-08-24T05:41:49.999Z,99259.31
2022-08-24T05:42:23.418Z,99261.80
2022-08-24T05:42:56.775Z,99262.14
2022-08-24T05:43:30.461Z,99260.95
2022-08-24T05:44:06.427Z,99261.10
2022-08-24T05:44:39.999Z,99263.15
2022-08-24T05:45:13.296Z,99264.02
2022-08-24T05:45:46.526Z,99260.54
2022-08-24T05:46:19.901Z,99260.77
2022-08-24T05:46:56.072Z,99263.66
2022-08-24T05:47:29.351Z,99261.73
2022-08-24T05:48:03.898Z,99263.02
2022-08-24T05:48:38.444Z,99259.65
2022-08-24T05:49:12.264Z,99261.60
2022-08-24T05:49:46.149Z,99258.93
2022-08-24T05:50:19.283Z,99257.27
2022-08-24T05:50:57.659Z,99254.82
2022-08-24T05:51:31.744Z,99255.52
2022-08-24T05:52:05.021Z,99252.95
2022-08-24T05:52:38.491Z,99254.61
2022-08-24T05:53:13.601Z,99254.54
2022-08-24T05:53:46.747Z,99252.68
2022-08-24T05:54:20.478Z,99254.89
2022-08-24T05:54:56.921Z,99258.80
2022-08-24T05:55:31.232Z,99260.04
2022-08-24T05:56:14.484Z,99256.84
2022-08-24T05:56:48.260Z,99257.66
2022-08-24T05:57:23.184Z,99257.54
2022-08-24T05:57:57.003Z,99256.00
2022-08-24T05:58:31.017Z,99257.56
2022-08-24T05:59:05.207Z,99254.35
2022-08-24T05:59:38.777Z,99255.71
2022-08-24T06:00:14.816Z,99253.40
2022-08-24T06:00:50.011Z,99257.05
2022-08-24T06:01:26.024Z,99255.45
2022-08-24T06:01:59.435Z,99255.04
2022-08-24T06:02:33.101Z,99253.97
2022-08-24T06:03:06.886Z,99255.30
2022-08-24T06:03:41.459Z,99251.48
2022-08-24T06:04:15.152Z,99253.15
2022-08-24T06:04:48.574Z,99254.80
2022-08-24T06:05:21.896Z,99255.01
2022-08-24T06:05:55.420Z,99254.36
2022-08-24T06:06:29.189Z,99259.25
2022-08-24T06:07:02.461Z,99259.63
2022-08-24T06:07:36.390Z,99258.25
2022-08-24T06:08:09.875Z,99258.33
2022-08-24T06:08:47.361Z,99259.93
2022-08-24T06:09:21.969Z,99263.94
2022-08-24T06:09:55.101Z,99264.84
2022-08-24T06:10:37.001Z,99263.60
2022-08-24T06:11:11.008Z,99266.38
2022-08-24T06:11:47.774Z,99267.63
2022-08-24T06:12:21.010Z,99265.48
2022-08-24T06:12:54.242Z,99264.04
2022-08-24T06:13:28.066Z,99261.65
2022-08-24T06:14:07.803Z,99261.48
2022-08-24T06:14:45.279Z,99263.32
2022-08-24T06:15:18.439Z,99262.25
2022-08-24T06:16:27.913Z,99266.06
2022-08-24T06:17:02.344Z,99265.84
2022-08-24T06:17:35.836Z,99265.99
2022-08-24T06:18:09.906Z,99266.23
2022-08-24T06:18:43.187Z,99268.59
2022-08-24T06:19:19.623Z,99267.36
2022-08-24T06:19:53.323Z,99269.79
2022-08-24T06:20:26.686Z,99271.17
2022-08-24T06:21:05.017Z,99271.56
2022-08-24T06:21:38.232Z,99278.20
2022-08-24T06:22:11.549Z,99277.88
2022-08-24T06:22:44.805Z,99279.64
2022-08-24T06:23:17.893Z,99280.55
2022-08-24T06:23:51.735Z,99283.34
2022-08-24T06:24:46.419Z,99285.34
2022-08-24T06:25:38.461Z,99287.91
2022-08-24T06:26:32.586Z,99292.51
2022-08-24T06:27:25.741Z,99294.23
2022-08-24T06:27:59.063Z,99296.70
2022-08-24T06:28:33.949Z,99296.22
2022-08-24T06:29:08.488Z,99295.69
2022-08-24T06:29:42.243Z,99297.30
2022-08-24T06:30:15.658Z,99296.98
2022-08-24T06:30:48.947Z,99298.91
2022-08-24T06:31:23.231Z,99293.30
2022-08-24T06:31:58.095Z,99295.50
2022-08-24T06:32:33.195Z,99293.53
2022-08-24T06:33:07.024Z,99290.52
2022-08-24T06:33:40.632Z,99293.38
2022-08-24T06:34:16.522Z,99295.42
2022-08-24T06:34:50.719Z,99296.49
2022-08-24T06:35:24.019Z,99294.41
2022-08-24T06:35:57.273Z,99297.58
2022-08-24T06:36:30.534Z,99291.79
2022-08-24T06:37:03.796Z,99292.39
2022-08-24T06:37:37.560Z,99288.41
2022-08-24T06:38:11.371Z,99286.01
2022-08-24T06:38:45.711Z,99291.52
2022-08-24T06:39:20.358Z,99290.03
2022-08-24T06:39:58.462Z,99290.98
2022-08-24T06:40:31.940Z,99293.27
2022-08-24T06:41:05.319Z,99288.19
2022-08-24T06:41:41.525Z,99289.71
2022-08-24T06:42:14.705Z,99290.67
2022-08-24T06:42:48.788Z,99292.11
2022-08-24T06:43:22.402Z,99292.67
2022-08-24T06:43:55.835Z,99289.83
2022-08-24T06:44:29.249Z,99288.60
2022-08-24T06:45:03.461Z,99286.84
2022-08-24T06:45:36.863Z,99285.55
2022-08-24T06:46:10.285Z,99280.20
2022-08-24T06:46:44.047Z,99278.53
2022-08-24T06:47:17.434Z,99277.35
2022-08-24T06:47:50.556Z,99276.59
2022-08-24T06:48:24.517Z,99277.55
2022-08-24T06:48:57.654Z,99277.88
2022-08-24T06:49:30.820Z,99279.38
2022-08-24T06:50:04.683Z,99280.46
2022-08-24T06:50:39.994Z,99285.55
2022-08-24T06:51:17.322Z,99284.80
2022-08-24T06:51:52.197Z,99289.30
2022-08-24T06:52:25.433Z,99288.17
2022-08-24T06:53:00.823Z,99288.23
2022-08-24T06:53:33.977Z,99293.48
2022-08-24T06:54:08.645Z,99290.42
2022-08-24T06:54:41.844Z,99293.21